Time;durP1;ratioP1;P1;durP2;ratioP2;P2;SDS_P1;SDS_P2;PMS_P1;PMS_P2;Temp;Humidity;BMP_temperature;BMP_pressure;BME280_temperature;BME280_humidity;BME280_pressure;Samples;Min_cycle;Max_cycle;Signal;HPM_P1;HPM_P2
2022/08/09 00:02:23;;;;;;;;;;;17.70;99.90;;;;;;5088162;28;19957;-66
2022/08/09 00:04:49;;;;;;;;;;;17.60;99.90;;;;;;5077143;28;19945;-67
2022/08/09 00:07:15;;;;;;;;;;;17.60;99.90;;;;;;5075504;28;19932;-69
2022/08/09 00:09:43;;;;;;;;;;;17.60;99.90;;;;;;5081856;28;19919;-69
2022/08/09 00:12:09;;;;;;;;;;;17.50;99.90;;;;;;5086488;28;20311;-67
2022/08/09 00:14:34;;;;;;;;;;;17.40;99.90;;;;;;5084470;28;19930;-67
2022/08/09 00:17:00;;;;;;;;;;;17.20;99.90;;;;;;5084916;28;19920;-68
2022/08/09 00:19:25;;;;;;;;;;;17.20;99.90;;;;;;5067217;28;19913;-68
2022/08/09 00:21:51;;;;;;;;;;;17.10;99.90;;;;;;5088376;28;19912;-68
2022/08/09 00:24:17;;;;;;;;;;;17.10;99.90;;;;;;5084861;28;19966;-67
2022/08/09 00:26:42;;;;;;;;;;;17.20;99.90;;;;;;5084121;28;19916;-68
2022/08/09 00:29:08;;;;;;;;;;;17.10;99.90;;;;;;5063761;28;19965;-67
2022/08/09 00:31:33;;;;;;;;;;;17.00;99.90;;;;;;5065360;28;19927;-67
2022/08/09 00:33:59;;;;;;;;;;;17.00;99.90;;;;;;5066287;28;19940;-68
2022/08/09 00:36:25;;;;;;;;;;;17.00;99.90;;;;;;5086546;28;20901;-68
2022/08/09 00:38:51;;;;;;;;;;;17.00;99.90;;;;;;5080409;28;19912;-68
2022/08/09 00:41:19;;;;;;;;;;;17.00;99.90;;;;;;5085900;28;19912;-68
2022/08/09 00:43:45;;;;;;;;;;;17.10;99.90;;;;;;5082588;28;19920;-68
2022/08/09 00:46:11;;;;;;;;;;;17.10;99.90;;;;;;5084389;28;19960;-68
2022/08/09 00:48:37;;;;;;;;;;;17.10;99.90;;;;;;5086106;28;19946;-67
2022/08/09 00:51:05;;;;;;;;;;;17.20;99.90;;;;;;5087281;28;20262;-67
2022/08/09 00:53:31;;;;;;;;;;;17.20;99.90;;;;;;5066950;28;19977;-69
2022/08/09 00:55:57;;;;;;;;;;;17.20;99.90;;;;;;5069316;28;20350;-67
2022/08/09 00:58:22;;;;;;;;;;;17.10;99.90;;;;;;5085669;28;20074;-69
2022/08/09 01:00:51;;;;;;;;;;;17.10;99.90;;;;;;5088353;28;19912;-68
2022/08/09 01:03:22;;;;;;;;;;;17.20;99.90;;;;;;5077176;28;19980;-67
2022/08/09 01:05:48;;;;;;;;;;;17.20;99.90;;;;;;5084835;28;19911;-67
2022/08/09 01:08:19;;;;;;;;;;;17.20;99.90;;;;;;5086192;28;19920;-68
2022/08/09 01:10:51;;;;;;;;;;;17.40;99.90;;;;;;5079996;28;19935;-68
2022/08/09 01:13:28;;;;;;;;;;;17.60;99.90;;;;;;5088781;28;19920;-68
2022/08/09 01:15:55;;;;;;;;;;;17.40;99.90;;;;;;5089399;28;19924;-67
2022/08/09 01:18:23;;;;;;;;;;;17.40;99.90;;;;;;5065716;28;19919;-68
2022/08/09 01:20:49;;;;;;;;;;;17.30;99.90;;;;;;5091974;28;19912;-68
2022/08/09 01:23:26;;;;;;;;;;;17.20;99.90;;;;;;5077675;28;20011;-67
2022/08/09 01:26:10;;;;;;;;;;;17.20;99.90;;;;;;5078063;28;19912;-67
2022/08/09 01:28:38;;;;;;;;;;;17.10;99.90;;;;;;5085759;28;19912;-67
2022/08/09 01:31:05;;;;;;;;;;;17.10;99.90;;;;;;5084834;28;19908;-68
2022/08/09 01:33:35;;;;;;;;;;;17.00;99.90;;;;;;5084077;28;19971;-68
2022/08/09 01:36:10;;;;;;;;;;;17.10;99.90;;;;;;5087946;28;19943;-68
2022/08/09 01:38:37;;;;;;;;;;;17.00;99.90;;;;;;5082620;28;19923;-67
2022/08/09 01:41:03;;;;;;;;;;;16.90;99.90;;;;;;5085583;28;19963;-67
2022/08/09 01:43:30;;;;;;;;;;;16.80;99.90;;;;;;5085884;28;19973;-68
2022/08/09 01:45:56;;;;;;;;;;;16.70;99.90;;;;;;5081716;28;19912;-68
2022/08/09 01:48:22;;;;;;;;;;;16.60;99.90;;;;;;5077548;28;19912;-68
2022/08/09 01:50:50;;;;;;;;;;;16.60;99.90;;;;;;5079488;28;20039;-68
2022/08/09 01:53:19;;;;;;;;;;;16.60;99.90;;;;;;5084813;28;19916;-67
2022/08/09 01:55:45;;;;;;;;;;;16.60;99.90;;;;;;5068225;28;19924;-68
2022/08/09 01:58:12;;;;;;;;;;;16.40;99.90;;;;;;5086636;28;19908;-67
2022/08/09 02:00:38;;;;;;;;;;;16.30;99.90;;;;;;5082649;28;20369;-67
2022/08/09 02:03:04;;;;;;;;;;;16.10;99.90;;;;;;5085762;28;19923;-68
2022/08/09 02:05:31;;;;;;;;;;;16.10;99.90;;;;;;5085216;28;20457;-68
2022/08/09 02:07:59;;;;;;;;;;;16.00;99.90;;;;;;5079891;28;19918;-66
2022/08/09 02:10:28;;;;;;;;;;;15.90;99.90;;;;;;5081401;28;20311;-68
2022/08/09 02:12:54;;;;;;;;;;;15.80;99.90;;;;;;5080857;28;20389;-67
2022/08/09 02:15:21;;;;;;;;;;;15.70;99.90;;;;;;5086743;28;19980;-66
2022/08/09 02:17:48;;;;;;;;;;;15.60;99.90;;;;;;5076959;28;19916;-69
2022/08/09 02:20:14;;;;;;;;;;;15.60;99.90;;;;;;5086382;28;19920;-67
2022/08/09 02:22:39;;;;;;;;;;;15.50;99.90;;;;;;5084160;28;19972;-67
2022/08/09 02:25:14;;;;;;;;;;;15.50;99.90;;;;;;5082506;28;19927;-67
2022/08/09 02:27:41;;;;;;;;;;;15.50;99.90;;;;;;5086231;28;20007;-67
2022/08/09 02:30:07;;;;;;;;;;;15.50;99.90;;;;;;5079303;28;19934;-67
2022/08/09 02:32:36;;;;;;;;;;;15.50;99.90;;;;;;5086191;28;19912;-67
2022/08/09 02:35:05;;;;;;;;;;;15.40;99.90;;;;;;5067833;28;20267;-68
2022/08/09 02:37:31;;;;;;;;;;;15.40;99.90;;;;;;5063888;28;20340;-67
2022/08/09 02:40:02;;;;;;;;;;;15.30;99.90;;;;;;5083075;28;20015;-67
2022/08/09 02:42:33;;;;;;;;;;;15.20;99.90;;;;;;5068359;28;20043;-67
2022/08/09 02:45:04;;;;;;;;;;;15.20;99.90;;;;;;5079593;28;19939;-67
2022/08/09 02:47:30;;;;;;;;;;;15.30;99.90;;;;;;5084847;28;20011;-67
2022/08/09 02:49:58;;;;;;;;;;;15.30;99.90;;;;;;5082022;28;20065;-68
2022/08/09 02:52:30;;;;;;;;;;;15.30;99.90;;;;;;5085530;28;20281;-68
2022/08/09 02:54:57;;;;;;;;;;;15.30;99.90;;;;;;5085350;28;19931;-68
2022/08/09 02:57:24;;;;;;;;;;;15.20;99.90;;;;;;5083641;28;19927;-68
2022/08/09 02:59:50;;;;;;;;;;;15.10;99.90;;;;;;5084645;28;19916;-67
2022/08/09 03:02:17;;;;;;;;;;;15.00;99.90;;;;;;5052101;28;19977;-67
2022/08/09 03:04:44;;;;;;;;;;;15.00;99.90;;;;;;5086646;28;19919;-68
2022/08/09 03:07:10;;;;;;;;;;;15.00;99.90;;;;;;5088658;28;19923;-68
2022/08/09 03:09:37;;;;;;;;;;;15.10;99.90;;;;;;5086287;28;19912;-69
2022/08/09 03:12:03;;;;;;;;;;;15.10;99.90;;;;;;5087261;28;19912;-68
2022/08/09 03:14:30;;;;;;;;;;;15.20;99.90;;;;;;5086089;28;19931;-67
2022/08/09 03:16:57;;;;;;;;;;;15.40;99.90;;;;;;5085506;28;19912;-68
2022/08/09 03:19:23;;;;;;;;;;;15.40;99.90;;;;;;5071194;28;19994;-68
2022/08/09 03:21:50;;;;;;;;;;;15.20;99.90;;;;;;5084216;28;20104;-67
2022/08/09 03:24:16;;;;;;;;;;;15.10;99.90;;;;;;5068562;28;19916;-68
2022/08/09 03:26:43;;;;;;;;;;;15.20;99.90;;;;;;5081079;28;19912;-67
2022/08/09 03:29:09;;;;;;;;;;;15.10;99.90;;;;;;5089167;28;19980;-68
2022/08/09 03:31:35;;;;;;;;;;;15.10;99.90;;;;;;5077310;28;20464;-68
2022/08/09 03:34:01;;;;;;;;;;;14.90;99.90;;;;;;5084876;28;19959;-67
2022/08/09 03:36:27;;;;;;;;;;;14.80;99.90;;;;;;5068603;28;20003;-66
2022/08/09 03:38:53;;;;;;;;;;;14.60;99.90;;;;;;5087492;28;20380;-67
2022/08/09 03:41:18;;;;;;;;;;;14.50;99.90;;;;;;5084900;28;20425;-67
2022/08/09 03:43:45;;;;;;;;;;;14.50;99.90;;;;;;5087335;28;19912;-68
2022/08/09 03:46:11;;;;;;;;;;;14.40;99.90;;;;;;5086321;28;19955;-67
2022/08/09 03:48:37;;;;;;;;;;;14.50;99.90;;;;;;5087518;28;19962;-67
2022/08/09 03:51:05;;;;;;;;;;;14.40;99.90;;;;;;5084733;28;19912;-68
2022/08/09 03:53:32;;;;;;;;;;;14.40;99.90;;;;;;5062349;28;19921;-67
2022/08/09 03:55:58;;;;;;;;;;;14.60;99.90;;;;;;5088147;28;19920;-69
2022/08/09 03:58:24;;;;;;;;;;;14.60;99.90;;;;;;5064033;28;20380;-68
2022/08/09 04:00:49;;;;;;;;;;;14.50;99.90;;;;;;5083660;28;19912;-68
2022/08/09 04:03:15;;;;;;;;;;;14.50;99.90;;;;;;5087742;28;19912;-67
2022/08/09 04:05:41;;;;;;;;;;;14.40;99.90;;;;;;5081747;28;19916;-67
2022/08/09 04:08:07;;;;;;;;;;;14.50;99.90;;;;;;5088151;28;20293;-68
2022/08/09 04:10:32;;;;;;;;;;;14.60;99.90;;;;;;5082676;28;19912;-68
2022/08/09 04:13:08;;;;;;;;;;;14.60;99.90;;;;;;5086645;28;19919;-67
2022/08/09 04:15:34;;;;;;;;;;;14.60;99.90;;;;;;5085756;28;20381;-68
2022/08/09 04:18:00;;;;;;;;;;;14.70;99.90;;;;;;5086132;28;20030;-68
2022/08/09 04:20:25;;;;;;;;;;;14.70;99.90;;;;;;5087204;28;20015;-67
2022/08/09 04:22:51;;;;;;;;;;;14.60;99.90;;;;;;5089292;28;20048;-68
2022/08/09 04:25:16;;;;;;;;;;;14.70;99.90;;;;;;5082662;28;19920;-69
2022/08/09 04:27:42;;;;;;;;;;;14.80;99.90;;;;;;5086550;28;19916;-67
2022/08/09 04:30:09;;;;;;;;;;;14.80;99.90;;;;;;5089853;28;19912;-67
2022/08/09 04:32:34;;;;;;;;;;;14.80;99.90;;;;;;5066543;28;19975;-68
2022/08/09 04:35:00;;;;;;;;;;;14.80;99.90;;;;;;5087909;28;20052;-68
2022/08/09 04:37:26;;;;;;;;;;;14.70;99.90;;;;;;5088627;28;20327;-67
2022/08/09 04:39:51;;;;;;;;;;;14.60;99.90;;;;;;5088353;28;19912;-67
2022/08/09 04:42:17;;;;;;;;;;;14.60;99.90;;;;;;5083004;28;19913;-68
2022/08/09 04:44:42;;;;;;;;;;;14.50;99.90;;;;;;5083525;28;19912;-66
2022/08/09 04:47:08;;;;;;;;;;;14.40;99.90;;;;;;5082409;28;19943;-67
2022/08/09 04:49:36;;;;;;;;;;;14.40;99.90;;;;;;5085501;28;20039;-67
2022/08/09 04:52:05;;;;;;;;;;;14.40;99.90;;;;;;5084897;28;19912;-67
2022/08/09 04:54:30;;;;;;;;;;;14.30;99.90;;;;;;5083977;28;19935;-68
2022/08/09 04:56:56;;;;;;;;;;;14.30;99.90;;;;;;5069861;28;20270;-68
2022/08/09 04:59:22;;;;;;;;;;;14.20;99.90;;;;;;5084444;28;20374;-69
2022/08/09 05:01:47;;;;;;;;;;;14.20;99.90;;;;;;5065232;28;20289;-68
2022/08/09 05:04:13;;;;;;;;;;;14.20;99.90;;;;;;5085498;28;19919;-69
2022/08/09 05:06:38;;;;;;;;;;;14.40;99.90;;;;;;5083853;28;19919;-66
2022/08/09 05:09:04;;;;;;;;;;;14.50;99.90;;;;;;5086811;28;20813;-68
2022/08/09 05:11:30;;;;;;;;;;;14.30;99.90;;;;;;5084638;28;20468;-67
2022/08/09 05:13:55;;;;;;;;;;;14.20;99.90;;;;;;5075991;28;19931;-68
2022/08/09 05:16:21;;;;;;;;;;;14.20;99.90;;;;;;5088725;28;19912;-68
2022/08/09 05:18:47;;;;;;;;;;;14.30;99.90;;;;;;5090507;28;19913;-68
2022/08/09 05:21:12;;;;;;;;;;;14.20;99.90;;;;;;5087399;28;19919;-66
2022/08/09 05:23:38;;;;;;;;;;;14.20;99.90;;;;;;5089886;28;19919;-68
2022/08/09 05:26:03;;;;;;;;;;;14.20;99.90;;;;;;5085778;28;20062;-68
2022/08/09 05:28:29;;;;;;;;;;;14.10;99.90;;;;;;5089771;28;19955;-67
2022/08/09 05:30:54;;;;;;;;;;;14.00;99.90;;;;;;5085939;28;19912;-67
2022/08/09 05:33:20;;;;;;;;;;;14.00;99.90;;;;;;5081580;28;19912;-68
2022/08/09 05:35:46;;;;;;;;;;;14.00;99.90;;;;;;5086312;28;19912;-68
2022/08/09 05:38:11;;;;;;;;;;;14.00;99.90;;;;;;5084152;28;19920;-68
2022/08/09 05:40:37;;;;;;;;;;;14.10;99.90;;;;;;5087273;28;19935;-67
2022/08/09 05:43:02;;;;;;;;;;;14.00;99.90;;;;;;5089335;28;20286;-67
2022/08/09 05:45:28;;;;;;;;;;;14.10;99.90;;;;;;5080416;28;19920;-68
2022/08/09 05:47:55;;;;;;;;;;;14.10;99.90;;;;;;5082356;28;19951;-68
2022/08/09 05:50:24;;;;;;;;;;;14.20;99.90;;;;;;5084248;28;19919;-68
2022/08/09 05:52:50;;;;;;;;;;;14.30;99.90;;;;;;5079820;28;19942;-68
2022/08/09 05:55:15;;;;;;;;;;;14.30;99.90;;;;;;5083836;28;19919;-68
2022/08/09 05:57:41;;;;;;;;;;;14.40;99.90;;;;;;5084907;28;20403;-68
2022/08/09 06:00:07;;;;;;;;;;;14.50;99.90;;;;;;5082206;28;20498;-67
2022/08/09 06:02:33;;;;;;;;;;;14.40;99.90;;;;;;5081143;28;19920;-68
2022/08/09 06:04:59;;;;;;;;;;;14.50;99.90;;;;;;5082967;28;19920;-66
2022/08/09 06:07:25;;;;;;;;;;;14.50;99.90;;;;;;5085877;28;19923;-68
2022/08/09 06:09:50;;;;;;;;;;;14.60;99.90;;;;;;5083997;28;20293;-68
2022/08/09 06:12:16;;;;;;;;;;;14.60;99.90;;;;;;5085273;28;19973;-68
2022/08/09 06:14:41;;;;;;;;;;;14.70;99.90;;;;;;5085463;28;20282;-68
2022/08/09 06:17:07;;;;;;;;;;;14.80;99.90;;;;;;5084966;28;19947;-68
2022/08/09 06:19:32;;;;;;;;;;;15.00;99.90;;;;;;5082858;28;20334;-68
2022/08/09 06:21:58;;;;;;;;;;;15.10;99.90;;;;;;5077514;28;19939;-67
2022/08/09 06:24:24;;;;;;;;;;;15.20;99.90;;;;;;5084589;28;20053;-66
2022/08/09 06:26:49;;;;;;;;;;;15.20;99.90;;;;;;5081825;28;19912;-68
2022/08/09 06:29:15;;;;;;;;;;;15.30;99.90;;;;;;5084819;28;19934;-69
2022/08/09 06:31:40;;;;;;;;;;;15.40;99.90;;;;;;5063064;28;19920;-68
2022/08/09 06:34:06;;;;;;;;;;;15.40;99.90;;;;;;5077106;28;20400;-68
2022/08/09 06:36:31;;;;;;;;;;;15.60;99.90;;;;;;5081038;28;19977;-69
2022/08/09 06:38:57;;;;;;;;;;;15.70;99.90;;;;;;5080828;28;19915;-68
2022/08/09 06:41:23;;;;;;;;;;;15.80;99.90;;;;;;5077903;28;20384;-68
2022/08/09 06:43:49;;;;;;;;;;;15.90;99.90;;;;;;5064153;28;20004;-68
2022/08/09 06:46:18;;;;;;;;;;;16.10;99.90;;;;;;5082918;28;19943;-68
2022/08/09 06:48:43;;;;;;;;;;;16.20;99.90;;;;;;5079661;28;20473;-69
2022/08/09 06:51:09;;;;;;;;;;;16.30;99.90;;;;;;5079316;28;20376;-68
2022/08/09 06:53:35;;;;;;;;;;;16.40;99.90;;;;;;5077674;28;19930;-69
2022/08/09 06:56:01;;;;;;;;;;;16.60;99.90;;;;;;5075649;28;19913;-68
2022/08/09 06:58:27;;;;;;;;;;;16.80;99.90;;;;;;5075737;28;19916;-68
2022/08/09 07:00:53;;;;;;;;;;;16.90;99.90;;;;;;5078231;28;19919;-69
2022/08/09 07:03:19;;;;;;;;;;;17.00;99.90;;;;;;5083402;28;20048;-67
2022/08/09 07:05:45;;;;;;;;;;;17.10;99.90;;;;;;5077905;28;19920;-69
2022/08/09 07:08:10;;;;;;;;;;;17.20;99.90;;;;;;5077991;28;19966;-70
2022/08/09 07:10:38;;;;;;;;;;;17.30;99.90;;;;;;5078779;28;19975;-68
2022/08/09 07:13:04;;;;;;;;;;;17.40;99.90;;;;;;5078131;28;19912;-68
2022/08/09 07:15:30;;;;;;;;;;;17.50;99.90;;;;;;5079087;28;19972;-68
2022/08/09 07:17:56;;;;;;;;;;;17.60;99.90;;;;;;5080059;28;20056;-68
2022/08/09 07:20:22;;;;;;;;;;;17.80;99.90;;;;;;5081752;28;20361;-68
2022/08/09 07:22:50;;;;;;;;;;;17.80;99.90;;;;;;5080789;28;19916;-68
2022/08/09 07:25:16;;;;;;;;;;;18.00;99.90;;;;;;5082998;28;19912;-68
2022/08/09 07:27:42;;;;;;;;;;;18.20;99.90;;;;;;5076417;28;20353;-69
2022/08/09 07:30:08;;;;;;;;;;;18.30;99.90;;;;;;5067397;28;19920;-67
2022/08/09 07:32:34;;;;;;;;;;;18.40;99.90;;;;;;5071282;28;19919;-67
2022/08/09 07:35:04;;;;;;;;;;;18.40;99.90;;;;;;5083758;28;19926;-68
2022/08/09 07:37:29;;;;;;;;;;;18.60;99.90;;;;;;5083194;28;19912;-67
2022/08/09 07:39:55;;;;;;;;;;;18.70;99.90;;;;;;5076586;28;19912;-68
2022/08/09 07:42:22;;;;;;;;;;;18.70;99.90;;;;;;5078574;28;19920;-67
2022/08/09 07:44:48;;;;;;;;;;;18.80;99.90;;;;;;5074443;28;19935;-68
2022/08/09 07:47:14;;;;;;;;;;;19.00;99.90;;;;;;5081132;28;20378;-66
2022/08/09 07:49:39;;;;;;;;;;;19.10;99.90;;;;;;5075438;28;19916;-67
2022/08/09 07:52:05;;;;;;;;;;;19.20;99.90;;;;;;5079735;28;19917;-67
2022/08/09 07:54:30;;;;;;;;;;;19.30;99.90;;;;;;5079276;28;19924;-68
2022/08/09 07:56:56;;;;;;;;;;;19.40;99.90;;;;;;5073565;28;19912;-67
2022/08/09 07:59:21;;;;;;;;;;;19.30;99.90;;;;;;5060930;28;19912;-71
2022/08/09 08:01:47;;;;;;;;;;;19.50;99.90;;;;;;5078306;28;19942;-67
2022/08/09 08:04:13;;;;;;;;;;;19.60;99.90;;;;;;5079718;28;20097;-66
2022/08/09 08:06:38;;;;;;;;;;;19.70;99.90;;;;;;5077427;28;19916;-67
2022/08/09 08:09:04;;;;;;;;;;;19.80;99.90;;;;;;5084716;28;20003;-67
2022/08/09 08:11:29;;;;;;;;;;;19.90;99.90;;;;;;5079753;28;19923;-67
2022/08/09 08:13:55;;;;;;;;;;;20.00;99.90;;;;;;5077242;28;19939;-66
2022/08/09 08:16:20;;;;;;;;;;;20.10;99.90;;;;;;5085112;28;19920;-66
2022/08/09 08:18:46;;;;;;;;;;;20.20;99.90;;;;;;5077547;28;20040;-68
2022/08/09 08:21:11;;;;;;;;;;;20.30;99.90;;;;;;5085047;28;19920;-67
2022/08/09 08:23:37;;;;;;;;;;;20.40;99.90;;;;;;5082427;28;19927;-67
2022/08/09 08:26:03;;;;;;;;;;;20.50;99.90;;;;;;5090923;28;19916;-68
2022/08/09 08:28:28;;;;;;;;;;;20.60;99.90;;;;;;5088224;28;19916;-68
2022/08/09 08:30:54;;;;;;;;;;;20.60;99.90;;;;;;5090965;28;19943;-68
2022/08/09 08:33:19;;;;;;;;;;;20.80;99.90;;;;;;5091017;28;19916;-68
2022/08/09 08:35:45;;;;;;;;;;;20.90;99.90;;;;;;5093850;28;19938;-68
2022/08/09 08:38:11;;;;;;;;;;;21.00;99.90;;;;;;5086353;28;19917;-68
2022/08/09 08:40:37;;;;;;;;;;;21.00;99.90;;;;;;5086555;28;19920;-68
2022/08/09 08:43:03;;;;;;;;;;;21.10;99.90;;;;;;5094730;28;19919;-69
2022/08/09 08:45:31;;;;;;;;;;;21.20;99.90;;;;;;5091589;28;19919;-68
2022/08/09 08:47:56;;;;;;;;;;;21.20;99.90;;;;;;5093983;28;19919;-69
2022/08/09 08:50:22;;;;;;;;;;;21.30;99.90;;;;;;5072855;28;19920;-68
2022/08/09 08:52:48;;;;;;;;;;;21.30;99.90;;;;;;5083731;28;19920;-67
2022/08/09 08:55:14;;;;;;;;;;;21.40;99.90;;;;;;5085280;28;20350;-67
2022/08/09 08:57:40;;;;;;;;;;;21.50;99.90;;;;;;5086230;28;19937;-68
2022/08/09 09:00:08;;;;;;;;;;;21.60;99.90;;;;;;5079719;28;19913;-68
2022/08/09 09:02:36;;;;;;;;;;;21.70;99.90;;;;;;5093604;28;19916;-67
2022/08/09 09:05:02;;;;;;;;;;;21.90;99.90;;;;;;5091600;28;19919;-70
2022/08/09 09:07:29;;;;;;;;;;;21.90;99.90;;;;;;5095318;28;19912;-69
2022/08/09 09:09:55;;;;;;;;;;;22.00;97.80;;;;;;5083477;28;19920;-66
2022/08/09 09:12:22;;;;;;;;;;;22.20;93.80;;;;;;5088783;28;19912;-68
2022/08/09 09:14:48;;;;;;;;;;;22.30;92.30;;;;;;5089741;28;19930;-68
2022/08/09 09:17:14;;;;;;;;;;;22.40;91.80;;;;;;5087338;28;19915;-68
2022/08/09 09:19:40;;;;;;;;;;;22.30;88.50;;;;;;5088059;28;19920;-68
2022/08/09 09:22:06;;;;;;;;;;;22.40;89.30;;;;;;5070082;28;19912;-68
2022/08/09 09:24:34;;;;;;;;;;;22.40;88.70;;;;;;5089983;28;20366;-68
2022/08/09 09:27:00;;;;;;;;;;;22.40;90.00;;;;;;5090156;28;19919;-69
2022/08/09 09:29:33;;;;;;;;;;;22.50;90.00;;;;;;5090918;28;19912;-68
2022/08/09 09:31:59;;;;;;;;;;;22.60;90.50;;;;;;5092613;28;19912;-67
2022/08/09 09:34:25;;;;;;;;;;;22.70;90.00;;;;;;5090076;28;19927;-69
2022/08/09 09:36:51;;;;;;;;;;;22.90;88.40;;;;;;5091783;28;19920;-68
2022/08/09 09:39:17;;;;;;;;;;;22.90;87.00;;;;;;5086512;28;19924;-69
2022/08/09 09:41:44;;;;;;;;;;;23.00;86.80;;;;;;5088963;28;19916;-69
2022/08/09 09:44:10;;;;;;;;;;;23.20;85.70;;;;;;5094448;28;20002;-68
2022/08/09 09:46:36;;;;;;;;;;;23.00;85.50;;;;;;5070407;28;19990;-68
2022/08/09 09:49:06;;;;;;;;;;;23.00;87.30;;;;;;5090341;28;19912;-68
2022/08/09 09:51:32;;;;;;;;;;;23.10;83.90;;;;;;5088542;28;19912;-69
2022/08/09 09:54:05;;;;;;;;;;;23.30;82.20;;;;;;5086580;28;19924;-68
2022/08/09 09:56:31;;;;;;;;;;;23.40;82.30;;;;;;5087602;28;19930;-68
2022/08/09 09:58:57;;;;;;;;;;;23.60;80.50;;;;;;5090057;28;20083;-69
2022/08/09 10:01:23;;;;;;;;;;;23.70;78.70;;;;;;5084417;28;20015;-67
2022/08/09 10:03:49;;;;;;;;;;;23.70;77.20;;;;;;5080300;28;19923;-69
2022/08/09 10:06:16;;;;;;;;;;;23.60;77.00;;;;;;5081610;28;20458;-68
2022/08/09 10:08:42;;;;;;;;;;;23.60;77.10;;;;;;5085797;28;19924;-68
2022/08/09 10:11:18;;;;;;;;;;;23.80;76.80;;;;;;5082447;28;19912;-68
2022/08/09 10:13:44;;;;;;;;;;;23.80;76.40;;;;;;5084688;28;19977;-69
2022/08/09 10:16:13;;;;;;;;;;;23.80;75.70;;;;;;5086582;28;19916;-68
2022/08/09 10:18:48;;;;;;;;;;;23.90;74.30;;;;;;5084960;28;19948;-69
2022/08/09 10:21:14;;;;;;;;;;;24.10;74.00;;;;;;5085418;28;20011;-67
2022/08/09 10:23:39;;;;;;;;;;;24.20;73.50;;;;;;5081879;28;19927;-68
2022/08/09 10:26:05;;;;;;;;;;;24.20;72.80;;;;;;5083025;28;20365;-68
2022/08/09 10:28:32;;;;;;;;;;;24.10;72.70;;;;;;5068524;28;19916;-67
2022/08/09 10:30:58;;;;;;;;;;;24.30;72.30;;;;;;5068657;28;19995;-68
2022/08/09 10:33:24;;;;;;;;;;;24.40;71.50;;;;;;5084791;28;20404;-68
2022/08/09 10:35:50;;;;;;;;;;;24.40;70.80;;;;;;5084855;28;20379;-68
2022/08/09 10:38:18;;;;;;;;;;;24.40;69.90;;;;;;5083126;28;19958;-67
2022/08/09 10:40:47;;;;;;;;;;;24.30;70.10;;;;;;5091529;28;19912;-69
2022/08/09 10:43:13;;;;;;;;;;;24.40;70.70;;;;;;5091664;28;19911;-68
2022/08/09 10:45:43;;;;;;;;;;;24.60;67.60;;;;;;5088373;28;19919;-68
2022/08/09 10:48:08;;;;;;;;;;;24.80;67.60;;;;;;5088487;28;19916;-69
2022/08/09 10:53:37;;;;;;;;;;;25.10;66.50;;;;;;5083590;28;19919;-68
2022/08/09 10:56:15;;;;;;;;;;;25.10;65.10;;;;;;5090705;28;20003;-68
2022/08/09 10:58:40;;;;;;;;;;;25.10;65.40;;;;;;5085772;28;20020;-68
2022/08/09 11:01:26;;;;;;;;;;;25.30;64.50;;;;;;5085682;28;20014;-68
2022/08/09 11:04:07;;;;;;;;;;;25.40;64.30;;;;;;5084765;28;19916;-69
2022/08/09 11:06:34;;;;;;;;;;;25.40;64.40;;;;;;5087708;28;20246;-68
2022/08/09 11:09:00;;;;;;;;;;;25.60;64.30;;;;;;5086282;28;20413;-68
2022/08/09 11:11:52;;;;;;;;;;;25.50;64.10;;;;;;5081552;28;19916;-69
2022/08/09 11:14:36;;;;;;;;;;;25.50;63.20;;;;;;5052829;28;19928;-67
2022/08/09 11:17:23;;;;;;;;;;;25.60;62.90;;;;;;5085220;28;19934;-68
2022/08/09 11:20:06;;;;;;;;;;;25.60;62.60;;;;;;5068625;28;19912;-69
2022/08/09 11:22:42;;;;;;;;;;;25.70;62.50;;;;;;5084677;28;19916;-69
2022/08/09 11:25:16;;;;;;;;;;;25.70;62.20;;;;;;5080524;28;19920;-68
2022/08/09 11:27:43;;;;;;;;;;;25.70;62.50;;;;;;5078799;28;20349;-66
2022/08/09 11:30:13;;;;;;;;;;;25.80;61.70;;;;;;5080917;28;19912;-68
2022/08/09 11:32:39;;;;;;;;;;;25.80;62.20;;;;;;5081674;28;20009;-67
2022/08/09 11:35:11;;;;;;;;;;;25.80;61.00;;;;;;5079080;28;19924;-68
2022/08/09 11:37:37;;;;;;;;;;;25.90;61.70;;;;;;5081471;28;19920;-69
2022/08/09 11:40:05;;;;;;;;;;;25.70;61.70;;;;;;5084779;28;20102;-68
2022/08/09 11:42:39;;;;;;;;;;;25.80;61.30;;;;;;5081377;28;19977;-68
2022/08/09 11:45:18;;;;;;;;;;;25.80;60.50;;;;;;5078143;28;20358;-69
2022/08/09 11:47:45;;;;;;;;;;;25.80;61.40;;;;;;5081034;28;19919;-69
2022/08/09 11:50:10;;;;;;;;;;;25.90;60.30;;;;;;5065476;28;19987;-69
2022/08/09 11:52:54;;;;;;;;;;;26.10;60.70;;;;;;5086064;28;20241;-67
2022/08/09 11:55:32;;;;;;;;;;;26.10;60.30;;;;;;5073974;28;19973;-68
2022/08/09 11:57:59;;;;;;;;;;;26.30;59.40;;;;;;5088423;28;19916;-68
2022/08/09 12:00:26;;;;;;;;;;;26.30;59.70;;;;;;5090586;28;19955;-68
2022/08/09 12:02:52;;;;;;;;;;;26.10;58.50;;;;;;5091822;28;19947;-68
2022/08/09 12:05:18;;;;;;;;;;;26.00;58.50;;;;;;5090396;28;19916;-68
2022/08/09 12:07:44;;;;;;;;;;;26.00;57.80;;;;;;5067279;28;20266;-68
2022/08/09 12:10:11;;;;;;;;;;;26.00;58.70;;;;;;5084285;28;20010;-69
2022/08/09 12:12:43;;;;;;;;;;;26.10;58.50;;;;;;5070177;28;19912;-69
2022/08/09 12:15:25;;;;;;;;;;;26.00;59.60;;;;;;5091063;28;19920;-67
2022/08/09 12:17:51;;;;;;;;;;;26.40;57.50;;;;;;5083260;28;19920;-68
2022/08/09 12:20:20;;;;;;;;;;;26.50;57.90;;;;;;5088115;28;19958;-67
2022/08/09 12:22:46;;;;;;;;;;;26.40;56.60;;;;;;5085179;28;19922;-68
2022/08/09 12:25:13;;;;;;;;;;;26.60;56.60;;;;;;5064271;28;19916;-68
2022/08/09 12:27:39;;;;;;;;;;;26.60;56.30;;;;;;5085860;28;19916;-67
2022/08/09 12:30:06;;;;;;;;;;;26.70;55.70;;;;;;5085843;28;19920;-68
2022/08/09 12:32:32;;;;;;;;;;;26.70;55.90;;;;;;5086915;28;19912;-69
2022/08/09 12:34:59;;;;;;;;;;;26.80;55.90;;;;;;5092862;28;19921;-68
2022/08/09 12:37:35;;;;;;;;;;;26.80;55.80;;;;;;5085166;28;19912;-67
2022/08/09 12:40:08;;;;;;;;;;;26.70;54.90;;;;;;5086031;28;19919;-68
2022/08/09 12:42:34;;;;;;;;;;;26.80;54.90;;;;;;5083888;28;19923;-66
2022/08/09 12:45:00;;;;;;;;;;;27.00;53.10;;;;;;5084565;28;19913;-69
2022/08/09 12:47:26;;;;;;;;;;;26.90;52.80;;;;;;5068727;28;19920;-69
2022/08/09 12:52:43;;;;;;;;;;;26.70;54.00;;;;;;5087425;28;20963;-69
2022/08/09 12:55:09;;;;;;;;;;;26.90;53.50;;;;;;5087298;28;20014;-68
2022/08/09 12:57:41;;;;;;;;;;;27.00;53.10;;;;;;5092179;28;20011;-67
2022/08/09 13:00:10;;;;;;;;;;;27.20;51.70;;;;;;5083486;28;19999;-69
2022/08/09 13:02:50;;;;;;;;;;;27.30;52.20;;;;;;5085912;28;19919;-68
2022/08/09 13:05:17;;;;;;;;;;;27.40;50.60;;;;;;5065036;28;19920;-68
2022/08/09 13:08:02;;;;;;;;;;;27.60;50.60;;;;;;5087150;28;19918;-69
2022/08/09 13:10:28;;;;;;;;;;;27.40;51.30;;;;;;5086519;28;20005;-68
2022/08/09 13:12:53;;;;;;;;;;;27.30;53.00;;;;;;5088712;28;19915;-68
2022/08/09 13:15:19;;;;;;;;;;;27.30;50.90;;;;;;5090215;28;20031;-67
2022/08/09 13:17:44;;;;;;;;;;;27.10;51.60;;;;;;5090277;28;20014;-68
2022/08/09 13:20:10;;;;;;;;;;;27.20;52.90;;;;;;5085243;28;19967;-67
2022/08/09 13:22:46;;;;;;;;;;;27.30;50.90;;;;;;5096474;28;19992;-68
2022/08/09 13:25:11;;;;;;;;;;;27.50;49.00;;;;;;5084880;28;19916;-67
2022/08/09 13:27:38;;;;;;;;;;;27.60;49.10;;;;;;5086098;28;19923;-68
2022/08/09 13:30:09;;;;;;;;;;;27.70;47.30;;;;;;5086149;28;19916;-67
2022/08/09 13:32:54;;;;;;;;;;;27.80;45.80;;;;;;5086595;28;20044;-70
2022/08/09 13:35:21;;;;;;;;;;;27.80;47.10;;;;;;5080979;28;19943;-67
2022/08/09 13:37:46;;;;;;;;;;;27.90;47.30;;;;;;5085221;28;19912;-67
2022/08/09 13:40:12;;;;;;;;;;;28.00;45.60;;;;;;5083778;28;19919;-68
2022/08/09 13:42:39;;;;;;;;;;;28.00;47.20;;;;;;5086656;28;19916;-68
2022/08/09 13:45:04;;;;;;;;;;;28.00;45.10;;;;;;5085155;28;19916;-68
2022/08/09 13:47:31;;;;;;;;;;;27.90;45.20;;;;;;5086697;28;20357;-67
2022/08/09 13:50:00;;;;;;;;;;;27.80;47.20;;;;;;5086244;28;19912;-68
2022/08/09 13:52:26;;;;;;;;;;;27.80;46.80;;;;;;5085238;28;20408;-67
2022/08/09 13:54:53;;;;;;;;;;;27.90;46.70;;;;;;5084051;28;20053;-68
2022/08/09 13:57:18;;;;;;;;;;;28.10;46.70;;;;;;5082632;28;20083;-67
2022/08/09 13:59:44;;;;;;;;;;;28.20;45.90;;;;;;5084093;28;19915;-68
2022/08/09 14:02:09;;;;;;;;;;;28.40;45.70;;;;;;5082766;28;19920;-66
2022/08/09 14:04:35;;;;;;;;;;;28.50;45.00;;;;;;5085450;28;19912;-68
2022/08/09 14:07:01;;;;;;;;;;;28.40;45.30;;;;;;5086771;28;19920;-67
2022/08/09 14:09:27;;;;;;;;;;;28.40;46.10;;;;;;5086687;28;20290;-67
2022/08/09 14:11:54;;;;;;;;;;;28.50;45.70;;;;;;5071941;28;19927;-67
2022/08/09 14:14:20;;;;;;;;;;;28.70;43.60;;;;;;5086319;28;19926;-68
2022/08/09 14:16:45;;;;;;;;;;;28.60;45.70;;;;;;5088845;28;20007;-68
2022/08/09 14:19:11;;;;;;;;;;;28.50;45.30;;;;;;5084489;28;19966;-68
2022/08/09 14:21:37;;;;;;;;;;;28.60;42.70;;;;;;5089920;28;19995;-67
2022/08/09 14:24:03;;;;;;;;;;;28.50;42.40;;;;;;5078649;28;19977;-67